Fort Worth NAS, Texas
Current Conditions -  °F | °C
As of 8:52 PM on Friday 24 Oct 2014 (Local Time) from KNFW Reporting Station
Few Clouds Few Clouds  
Wind Chill: 77°   Ceiling: Unl
Heat Index: 79°   Visibility: 10mi
Dew Point: 59°   Wind: 7mph
Humidity: 54%   Direction: 180°S
Pressure: 30.12"   Gusts: NA
Location:  32.77°N, 97.43°W
Report Text: KNFW 250152Z 18006KT 10SM FEW250 25/15 A3012 RMK AO2 SLP181 T02500150 VISNO N $
Loading
Personal Weather Stations






























Interactive Weather Map
Tropical Storm Tracking
New forecast layout! Learn more

10-Day Weather Forecast

Advertisements
Track Severe Weather on mobile